createdAt,value
2019-05-22T00:01:22.179Z,11.73
2019-05-22T00:04:07.172Z,9.70
2019-05-22T00:06:41.730Z,6.63
2019-05-22T00:09:19.882Z,9.47
2019-05-22T00:11:52.283Z,7.37
2019-05-22T00:14:24.739Z,9.93
2019-05-22T00:16:54.735Z,11.20
2019-05-22T00:19:27.072Z,8.20
2019-05-22T00:22:07.832Z,7.47
2019-05-22T00:24:39.793Z,10.10
2019-05-22T00:27:15.819Z,10.03
2019-05-22T00:29:47.038Z,9.63
2019-05-22T00:32:18.307Z,10.90
2019-05-22T00:34:49.236Z,9.03
2019-05-22T00:37:26.475Z,10.80
2019-05-22T00:39:58.125Z,9.60
2019-05-22T00:42:28.107Z,10.03
2019-05-22T00:44:59.061Z,8.93
2019-05-22T00:47:33.987Z,8.53
2019-05-22T00:50:08.794Z,9.13
2019-05-22T00:52:45.362Z,10.70
2019-05-22T00:55:37.827Z,8.33
2019-05-22T00:58:14.076Z,8.30
2019-05-22T01:00:50.644Z,9.63
2019-05-22T01:03:22.917Z,9.87
2019-05-22T01:05:54.580Z,9.87
2019-05-22T01:08:28.207Z,9.27
2019-05-22T01:11:00.353Z,10.60
2019-05-22T01:13:33.310Z,5.77
2019-05-22T01:16:14.804Z,6.53
2019-05-22T01:18:47.017Z,9.37
2019-05-22T01:21:24.849Z,10.63
2019-05-22T01:23:59.969Z,9.47
2019-05-22T01:26:32.464Z,10.07
2019-05-22T01:29:04.515Z,9.70
2019-05-22T01:31:39.614Z,9.37
2019-05-22T01:34:24.145Z,5.67
2019-05-22T01:37:08.284Z,9.27
2019-05-22T01:39:59.016Z,9.27
2019-05-22T01:42:45.537Z,8.50
2019-05-22T01:45:18.911Z,8.07
2019-05-22T01:47:57.145Z,9.93
2019-05-22T01:50:41.424Z,10.83
2019-05-22T01:53:17.166Z,4.43
2019-05-22T01:55:48.830Z,10.20
2019-05-22T01:58:20.971Z,8.13
2019-05-22T02:00:55.466Z,8.30
2019-05-22T02:03:26.942Z,5.80
2019-05-22T02:05:58.214Z,10.00
2019-05-22T02:08:30.162Z,6.87
2019-05-22T02:11:02.056Z,9.77
2019-05-22T02:13:38.277Z,9.90
2019-05-22T02:16:11.690Z,7.90
2019-05-22T02:18:43.488Z,10.63
2019-05-22T02:21:13.957Z,9.10
2019-05-22T02:23:44.140Z,5.23
2019-05-22T02:26:16.604Z,9.27
2019-05-22T02:28:46.811Z,11.00
2019-05-22T02:31:18.465Z,10.23
2019-05-22T02:34:07.417Z,10.30
2019-05-22T02:36:39.718Z,6.97
2019-05-22T02:39:23.859Z,7.50
2019-05-22T02:41:56.938Z,9.13
2019-05-22T02:44:27.192Z,9.30
2019-05-22T02:47:16.890Z,8.63
2019-05-22T02:49:32.335Z,11.00
2019-05-22T02:52:03.777Z,9.97
2019-05-22T02:54:34.152Z,8.90
2019-05-22T02:57:04.988Z,8.57
2019-05-22T02:59:36.912Z,9.20
2019-05-22T03:02:06.978Z,9.73
2019-05-22T03:04:58.285Z,8.40
2019-05-22T03:07:29.787Z,4.73
2019-05-22T03:10:01.259Z,9.83
2019-05-22T03:12:33.321Z,8.57
2019-05-22T03:15:04.891Z,7.97
2019-05-22T03:17:35.343Z,8.67
2019-05-22T03:20:17.187Z,8.17
2019-05-22T03:22:59.717Z,9.40
2019-05-22T03:25:32.656Z,6.03
2019-05-22T03:28:04.797Z,9.47
2019-05-22T03:30:39.767Z,7.03
2019-05-22T03:33:10.707Z,7.87
2019-05-22T03:35:47.260Z,7.50
2019-05-22T03:38:19.306Z,8.13
2019-05-22T03:40:52.259Z,5.83
2019-05-22T03:43:24.920Z,8.00
2019-05-22T03:45:56.270Z,8.17
2019-05-22T03:48:28.586Z,9.20
2019-05-22T03:51:08.666Z,7.97
2019-05-22T03:53:42.281Z,7.37
2019-05-22T03:56:13.043Z,8.23
2019-05-22T03:58:43.130Z,9.03
2019-05-22T04:01:21.921Z,7.40
2019-05-22T04:03:53.024Z,5.57
2019-05-22T04:06:24.163Z,9.57
2019-05-22T04:09:13.450Z,8.07
2019-05-22T04:11:46.558Z,8.17
2019-05-22T04:14:17.078Z,8.80
2019-05-22T04:16:48.966Z,7.10
2019-05-22T04:19:18.830Z,5.37
2019-05-22T04:21:48.925Z,8.77
2019-05-22T04:24:19.651Z,5.10
2019-05-22T04:26:50.376Z,9.13
2019-05-22T04:29:21.431Z,9.17
2019-05-22T04:32:01.913Z,8.93
2019-05-22T04:34:32.916Z,7.13
2019-05-22T04:37:12.974Z,8.50
2019-05-22T04:39:44.278Z,7.83
2019-05-22T04:42:15.999Z,4.37
2019-05-22T04:45:09.180Z,9.23
2019-05-22T04:47:40.756Z,7.70
2019-05-22T04:50:11.749Z,7.57
2019-05-22T04:52:41.859Z,7.87
2019-05-22T04:55:13.338Z,8.70
2019-05-22T04:57:43.606Z,5.87
2019-05-22T05:00:14.768Z,7.90
2019-05-22T05:02:44.591Z,8.20
2019-05-22T05:05:15.276Z,8.67
2019-05-22T05:07:46.956Z,7.83
2019-05-22T05:10:17.660Z,9.00
2019-05-22T05:12:48.481Z,6.43
2019-05-22T05:15:18.082Z,8.17
2019-05-22T05:17:48.083Z,8.30
2019-05-22T05:20:22.415Z,7.17
2019-05-22T05:22:51.827Z,7.73
2019-05-22T05:25:22.304Z,7.87
2019-05-22T05:28:11.134Z,6.73
2019-05-22T05:30:51.309Z,8.27
2019-05-22T05:33:56.611Z,4.27
2019-05-22T05:36:26.197Z,5.87
2019-05-22T05:38:56.021Z,7.10
2019-05-22T05:41:25.619Z,6.40
2019-05-22T05:43:55.228Z,5.97
2019-05-22T05:46:25.812Z,6.87
2019-05-22T05:48:57.534Z,4.83
2019-05-22T05:51:30.354Z,6.17
2019-05-22T05:54:07.382Z,4.53
2019-05-22T05:56:39.466Z,5.30
2019-05-22T05:59:10.191Z,4.57
2019-05-22T06:01:44.083Z,4.30
2019-05-22T06:04:16.104Z,5.37
2019-05-22T06:07:22.199Z,5.30
2019-05-22T06:10:22.242Z,4.93
2019-05-22T06:12:52.802Z,4.20
2019-05-22T06:15:25.759Z,5.10
2019-05-22T06:18:34.768Z,5.97
2019-05-22T06:21:06.227Z,3.80
2019-05-22T06:24:11.325Z,5.60
2019-05-22T06:27:02.464Z,5.37
2019-05-22T06:29:53.904Z,3.80
2019-05-22T06:33:01.630Z,5.10
2019-05-22T06:35:38.689Z,4.10
2019-05-22T06:38:25.372Z,4.40
2019-05-22T06:40:55.531Z,4.70
2019-05-22T06:44:37.603Z,3.60
2019-05-22T06:47:09.359Z,4.30
2019-05-22T06:49:57.221Z,4.30
2019-05-22T06:52:27.637Z,4.10
2019-05-22T06:54:58.537Z,4.73
2019-05-22T06:57:29.622Z,4.60
2019-05-22T07:00:12.992Z,5.60
2019-05-22T07:02:36.860Z,4.63
2019-05-22T07:05:08.716Z,3.60
2019-05-22T07:07:40.170Z,4.90
2019-05-22T07:10:12.904Z,3.70
2019-05-22T07:12:50.288Z,4.87
2019-05-22T07:15:40.937Z,3.90
2019-05-22T07:18:13.239Z,4.07
2019-05-22T07:20:43.942Z,3.23
2019-05-22T07:23:15.096Z,4.77
2019-05-22T07:25:47.258Z,4.87
2019-05-22T07:28:20.676Z,3.07
2019-05-22T07:30:51.664Z,4.20
2019-05-22T07:33:22.163Z,3.53
2019-05-22T07:36:08.430Z,4.87
2019-05-22T07:38:24.274Z,3.43
2019-05-22T07:40:53.997Z,3.60
2019-05-22T07:43:24.506Z,4.70
2019-05-22T07:45:55.854Z,3.93
2019-05-22T07:48:34.830Z,3.30
2019-05-22T07:51:14.586Z,4.17
2019-05-22T07:53:47.548Z,3.73
2019-05-22T07:56:18.493Z,4.07
2019-05-22T07:58:48.783Z,1.87
2019-05-22T08:01:19.373Z,3.00
2019-05-22T08:03:49.473Z,4.43
2019-05-22T08:06:19.571Z,3.50
2019-05-22T08:08:50.435Z,4.00
2019-05-22T08:11:21.060Z,3.93
2019-05-22T08:13:52.180Z,3.97
2019-05-22T08:16:22.452Z,3.97
2019-05-22T08:18:52.497Z,3.10
2019-05-22T08:21:23.841Z,3.57
2019-05-22T08:23:55.724Z,3.43
2019-05-22T08:26:27.117Z,4.10
2019-05-22T08:28:58.856Z,3.87
2019-05-22T08:31:29.808Z,3.63
2019-05-22T08:34:00.401Z,4.63
2019-05-22T08:36:31.140Z,3.70
2019-05-22T08:39:02.622Z,2.17
2019-05-22T08:41:36.357Z,3.37
2019-05-22T08:44:17.584Z,3.57
2019-05-22T08:46:40.353Z,3.57
2019-05-22T08:49:13.275Z,2.33
2019-05-22T08:51:43.201Z,3.20
2019-05-22T08:54:14.814Z,3.63
2019-05-22T08:56:49.139Z,4.10
2019-05-22T08:59:20.370Z,4.13
2019-05-22T09:01:51.577Z,3.10
2019-05-22T09:04:22.042Z,3.50
2019-05-22T09:06:51.866Z,3.43
2019-05-22T09:09:22.267Z,4.63
2019-05-22T09:11:52.184Z,3.23
2019-05-22T09:14:22.187Z,3.90
2019-05-22T09:16:53.710Z,4.27
2019-05-22T09:19:23.540Z,4.50
2019-05-22T09:21:54.079Z,4.00
2019-05-22T09:24:26.023Z,3.17
2019-05-22T09:26:56.835Z,3.00
2019-05-22T09:29:26.946Z,3.57
2019-05-22T09:31:57.136Z,3.47
2019-05-22T09:34:27.469Z,3.77
2019-05-22T09:36:57.145Z,4.70
2019-05-22T09:39:27.718Z,3.93
2019-05-22T09:41:58.009Z,3.70
2019-05-22T09:44:28.220Z,4.13
2019-05-22T09:46:58.187Z,4.13
2019-05-22T09:49:32.779Z,3.73
2019-05-22T09:52:03.544Z,5.07
2019-05-22T09:54:33.734Z,4.43
2019-05-22T09:57:04.152Z,3.27
2019-05-22T09:59:35.255Z,3.80
2019-05-22T10:02:05.460Z,4.30
2019-05-22T10:04:36.220Z,4.13
2019-05-22T10:07:06.661Z,4.70
2019-05-22T10:09:37.028Z,4.53
2019-05-22T10:12:08.054Z,3.70
2019-05-22T10:14:38.624Z,3.30
2019-05-22T10:17:12.221Z,2.23
2019-05-22T10:19:41.836Z,3.83
2019-05-22T10:22:12.319Z,3.10
2019-05-22T10:24:43.957Z,2.83
2019-05-22T10:27:13.870Z,3.37
2019-05-22T10:29:44.603Z,3.03
2019-05-22T10:32:14.499Z,2.50
2019-05-22T10:34:44.375Z,2.60
2019-05-22T10:37:15.209Z,2.10
2019-05-22T10:39:45.922Z,2.93
2019-05-22T10:42:16.134Z,2.27
2019-05-22T10:44:46.231Z,2.50
2019-05-22T10:47:18.589Z,2.13
2019-05-22T10:49:48.422Z,1.77
2019-05-22T10:52:19.002Z,2.60
2019-05-22T10:54:48.971Z,2.30
2019-05-22T10:57:18.818Z,1.97
2019-05-22T10:59:48.609Z,2.40
2019-05-22T11:02:19.080Z,1.40
2019-05-22T11:04:49.721Z,1.77
2019-05-22T11:07:20.665Z,2.27
2019-05-22T11:09:51.143Z,1.93
2019-05-22T11:12:40.327Z,2.00
2019-05-22T11:15:10.208Z,2.50
2019-05-22T11:17:41.110Z,2.10
2019-05-22T11:20:12.574Z,2.10
2019-05-22T11:22:42.701Z,2.20
2019-05-22T11:25:16.054Z,1.93
2019-05-22T11:27:46.841Z,2.20
2019-05-22T11:30:19.351Z,2.13
2019-05-22T11:32:49.606Z,2.63
2019-05-22T11:35:20.779Z,2.00
2019-05-22T11:37:51.075Z,2.03
2019-05-22T11:40:22.186Z,1.63
2019-05-22T11:42:52.882Z,1.90
2019-05-22T11:45:24.001Z,1.57
2019-05-22T11:47:55.124Z,0.97
2019-05-22T11:50:25.837Z,1.30
2019-05-22T11:52:56.037Z,1.27
2019-05-22T11:55:47.447Z,2.07
2019-05-22T11:58:41.644Z,1.47
2019-05-22T12:01:23.320Z,1.77
2019-05-22T12:03:54.825Z,2.40
2019-05-22T12:06:26.257Z,0.97
2019-05-22T12:08:55.984Z,1.70
2019-05-22T12:11:27.102Z,1.67
2019-05-22T12:13:57.012Z,1.80
2019-05-22T12:16:28.417Z,2.03
2019-05-22T12:18:59.303Z,1.17
2019-05-22T12:21:29.589Z,1.27
2019-05-22T12:23:59.874Z,1.93
2019-05-22T12:26:30.764Z,1.30
2019-05-22T12:29:00.339Z,1.57
2019-05-22T12:31:30.713Z,1.53
2019-05-22T12:34:00.925Z,1.50
2019-05-22T12:36:31.086Z,1.20
2019-05-22T12:39:01.661Z,1.00
2019-05-22T12:41:32.624Z,1.53
2019-05-22T12:44:04.049Z,1.30
2019-05-22T12:46:34.892Z,1.37
2019-05-22T12:49:08.394Z,1.67
2019-05-22T12:51:36.770Z,1.27
2019-05-22T12:54:06.611Z,1.10
2019-05-22T12:56:37.312Z,1.40
2019-05-22T12:59:10.858Z,1.23
2019-05-22T13:01:41.591Z,1.30
2019-05-22T13:04:12.916Z,1.27
2019-05-22T13:06:44.652Z,1.37
2019-05-22T13:09:14.866Z,1.40
2019-05-22T13:11:45.537Z,1.50
2019-05-22T13:14:16.129Z,1.73
2019-05-22T13:16:49.089Z,1.80
2019-05-22T13:19:19.384Z,1.40
2019-05-22T13:21:52.306Z,1.67
2019-05-22T13:24:23.043Z,1.80
2019-05-22T13:26:53.887Z,1.07
2019-05-22T13:29:25.501Z,1.90
2019-05-22T13:31:56.940Z,2.00
2019-05-22T13:34:28.339Z,1.20
2019-05-22T13:36:58.612Z,1.47
2019-05-22T13:39:29.354Z,1.30
2019-05-22T13:41:59.499Z,1.63
2019-05-22T13:44:30.922Z,1.90
2019-05-22T13:47:01.466Z,1.67
2019-05-22T13:49:32.924Z,1.63
2019-05-22T13:52:03.159Z,1.20
2019-05-22T13:54:33.517Z,1.67
2019-05-22T13:57:06.403Z,1.43
2019-05-22T13:59:36.385Z,1.50
2019-05-22T14:02:06.382Z,1.50
2019-05-22T14:04:36.482Z,1.40
2019-05-22T14:07:07.853Z,1.50
2019-05-22T14:09:37.891Z,1.47
2019-05-22T14:12:09.564Z,1.30
2019-05-22T14:14:39.484Z,1.30
2019-05-22T14:17:09.992Z,1.17
2019-05-22T14:19:40.747Z,1.70
2019-05-22T14:22:10.683Z,1.50
2019-05-22T14:24:50.620Z,1.45
2019-05-22T14:27:20.902Z,1.33
2019-05-22T14:29:50.609Z,1.47
2019-05-22T14:32:29.880Z,1.57
2019-05-22T14:34:59.655Z,1.12
2019-05-22T14:37:30.667Z,1.05
2019-05-22T14:40:01.161Z,1.00
2019-05-22T14:42:31.342Z,1.40
2019-05-22T14:45:01.880Z,1.52
2019-05-22T14:47:32.088Z,1.20
2019-05-22T14:50:44.559Z,1.65
2019-05-22T14:53:15.916Z,1.47
2019-05-22T14:55:47.109Z,1.75
2019-05-22T14:58:17.872Z,1.32
2019-05-22T15:00:48.303Z,1.60
2019-05-22T15:03:19.103Z,1.75
2019-05-22T15:05:50.017Z,1.47
2019-05-22T15:08:23.394Z,1.50
2019-05-22T15:10:54.417Z,1.82
2019-05-22T15:13:25.681Z,1.43
2019-05-22T15:15:55.913Z,1.27
2019-05-22T15:18:26.433Z,1.12
2019-05-22T15:21:05.434Z,1.40
2019-05-22T15:23:36.019Z,1.30
2019-05-22T15:26:06.649Z,1.50
2019-05-22T15:28:37.908Z,1.40
2019-05-22T15:31:08.820Z,1.40
2019-05-22T15:33:39.567Z,1.60
2019-05-22T15:36:13.160Z,1.50
2019-05-22T15:38:44.392Z,1.75
2019-05-22T15:41:15.403Z,1.37
2019-05-22T15:43:52.153Z,1.42
2019-05-22T15:46:20.061Z,1.90
2019-05-22T15:48:51.931Z,1.57
2019-05-22T15:51:34.752Z,1.17
2019-05-22T15:54:08.922Z,1.40
2019-05-22T15:56:40.295Z,1.70
2019-05-22T15:59:22.113Z,1.27
2019-05-22T16:01:53.211Z,1.32
2019-05-22T16:04:23.707Z,1.57
2019-05-22T16:07:47.142Z,1.98
2019-05-22T16:10:27.618Z,1.90
2019-05-22T16:13:18.425Z,1.45
2019-05-22T16:15:51.908Z,1.87
2019-05-22T16:18:26.003Z,2.08
2019-05-22T16:20:57.513Z,1.70
2019-05-22T16:23:36.023Z,1.57
2019-05-22T16:26:08.927Z,1.83
2019-05-22T16:28:41.053Z,1.60
2019-05-22T16:31:12.767Z,1.60
2019-05-22T16:33:44.652Z,1.40
2019-05-22T16:36:16.306Z,1.20
2019-05-22T16:38:46.310Z,1.40
2019-05-22T16:41:17.827Z,1.70
2019-05-22T16:43:50.537Z,1.20
2019-05-22T16:46:21.989Z,1.30
2019-05-22T16:48:52.913Z,1.50
2019-05-22T16:51:23.498Z,1.15
2019-05-22T16:53:59.858Z,0.97
2019-05-22T16:56:31.926Z,1.27
2019-05-22T16:59:02.826Z,1.25
2019-05-22T17:01:33.691Z,1.33
2019-05-22T17:04:05.986Z,1.60
2019-05-22T17:06:35.746Z,1.55
2019-05-22T17:09:08.830Z,1.57
2019-05-22T17:11:39.484Z,1.70
2019-05-22T17:14:11.999Z,1.80
2019-05-22T17:16:58.458Z,1.40
2019-05-22T17:19:43.411Z,2.10
2019-05-22T17:22:15.743Z,1.70
2019-05-22T17:24:49.485Z,1.60
2019-05-22T17:27:23.388Z,2.10
2019-05-22T17:29:54.091Z,1.60
2019-05-22T17:32:27.379Z,1.70
2019-05-22T17:34:57.574Z,1.80
2019-05-22T17:37:28.578Z,1.63
2019-05-22T17:40:01.273Z,2.40
2019-05-22T17:42:33.058Z,2.33
2019-05-22T17:45:12.321Z,2.10
2019-05-22T17:47:42.926Z,2.67
2019-05-22T17:50:25.928Z,1.60
2019-05-22T17:52:48.373Z,1.67
2019-05-22T17:55:20.064Z,2.30
2019-05-22T17:57:50.546Z,2.00
2019-05-22T18:00:29.762Z,1.40
2019-05-22T18:03:04.325Z,2.30
2019-05-22T18:05:47.257Z,2.10
2019-05-22T18:08:22.214Z,2.43
2019-05-22T18:10:52.394Z,2.63
2019-05-22T18:13:23.962Z,1.90
2019-05-22T18:15:54.612Z,1.60
2019-05-22T18:18:24.554Z,1.43
2019-05-22T18:20:54.702Z,1.87
2019-05-22T18:23:25.738Z,1.50
2019-05-22T18:25:55.722Z,2.30
2019-05-22T18:31:56.288Z,2.17
2019-05-22T18:34:26.331Z,1.97
2019-05-22T18:36:57.856Z,3.33
2019-05-22T18:39:31.001Z,1.53
2019-05-22T18:42:01.229Z,1.40
2019-05-22T18:44:31.250Z,2.03
2019-05-22T18:47:01.681Z,1.50
2019-05-22T18:49:31.402Z,3.23
2019-05-22T18:52:01.529Z,3.17
2019-05-22T18:54:31.568Z,2.20
2019-05-22T18:57:02.110Z,1.77
2019-05-22T18:59:32.203Z,1.53
2019-05-22T19:02:02.115Z,1.80
2019-05-22T19:04:32.438Z,1.90
2019-05-22T19:07:02.427Z,1.80
2019-05-22T19:09:32.883Z,1.60
2019-05-22T19:12:02.999Z,1.60
2019-05-22T19:14:33.446Z,2.43
2019-05-22T19:17:04.905Z,2.73
2019-05-22T19:19:36.096Z,2.90
2019-05-22T19:22:06.243Z,1.83
2019-05-22T19:24:36.157Z,1.60
2019-05-22T19:27:06.288Z,1.50
2019-05-22T19:29:37.472Z,1.63
2019-05-22T19:32:07.256Z,1.60
2019-05-22T19:34:36.843Z,1.67
2019-05-22T19:37:10.948Z,1.37
2019-05-22T19:39:41.387Z,1.60
2019-05-22T19:42:11.639Z,1.50
2019-05-22T19:44:44.474Z,1.73
2019-05-22T19:47:14.390Z,1.67
2019-05-22T19:49:44.910Z,1.70
2019-05-22T19:52:16.088Z,1.43
2019-05-22T19:54:46.444Z,1.57
2019-05-22T19:57:17.623Z,1.40
2019-05-22T19:59:48.291Z,1.70
2019-05-22T20:02:18.715Z,1.70
2019-05-22T20:04:49.618Z,1.67
2019-05-22T20:07:19.829Z,1.70
2019-05-22T20:09:50.492Z,2.03
2019-05-22T20:12:24.733Z,1.80
2019-05-22T20:14:53.443Z,1.60
2019-05-22T20:17:23.508Z,1.40
2019-05-22T20:19:53.741Z,1.70
2019-05-22T20:22:24.693Z,1.40
2019-05-22T20:24:54.876Z,1.67
2019-05-22T20:27:28.034Z,1.73
2019-05-22T20:29:58.515Z,1.63
2019-05-22T20:32:30.770Z,1.57
2019-05-22T20:35:01.430Z,1.60
2019-05-22T20:37:33.597Z,2.00
2019-05-22T20:40:06.891Z,1.40
2019-05-22T20:42:38.706Z,1.90
2019-05-22T20:45:09.349Z,1.87
2019-05-22T20:47:42.279Z,1.50
2019-05-22T20:50:12.694Z,1.43
2019-05-22T20:52:44.556Z,2.10
2019-05-22T20:55:14.861Z,1.70
2019-05-22T20:57:58.218Z,1.60
2019-05-22T21:00:29.603Z,1.70
2019-05-22T21:03:04.032Z,1.70
2019-05-22T21:05:34.291Z,1.80
2019-05-22T21:08:08.051Z,1.40
2019-05-22T21:10:40.799Z,1.70
2019-05-22T21:13:20.433Z,1.50
2019-05-22T21:15:52.324Z,1.40
2019-05-22T21:18:28.367Z,1.50
2019-05-22T21:20:59.233Z,1.57
2019-05-22T21:23:50.241Z,1.60
2019-05-22T21:26:21.289Z,1.50
2019-05-22T21:28:55.828Z,1.50
2019-05-22T21:31:25.903Z,1.70
2019-05-22T21:33:57.209Z,2.10
2019-05-22T21:36:27.807Z,1.97
2019-05-22T21:38:58.152Z,1.90
2019-05-22T21:41:29.018Z,1.47
2019-05-22T21:44:04.548Z,1.63
2019-05-22T21:46:35.939Z,3.10
2019-05-22T21:49:06.583Z,2.53
2019-05-22T21:51:36.731Z,1.90
2019-05-22T21:54:07.703Z,1.80
2019-05-22T21:56:38.016Z,1.97
2019-05-22T21:59:08.881Z,2.00
2019-05-22T22:01:52.412Z,1.33
2019-05-22T22:04:27.309Z,1.60
2019-05-22T22:06:58.149Z,1.53
2019-05-22T22:09:28.039Z,1.67
2019-05-22T22:11:58.975Z,1.70
2019-05-22T22:14:30.030Z,1.57
2019-05-22T22:17:00.768Z,1.70
2019-05-22T22:19:32.090Z,1.67
2019-05-22T22:22:02.668Z,1.90
2019-05-22T22:24:33.426Z,1.80
2019-05-22T22:27:04.179Z,1.70
2019-05-22T22:29:33.908Z,1.87
2019-05-22T22:32:10.576Z,1.80
2019-05-22T22:34:47.489Z,1.57
2019-05-22T22:37:25.351Z,1.93
2019-05-22T22:39:56.690Z,2.13
2019-05-22T22:42:31.980Z,1.90
2019-05-22T22:45:05.392Z,1.63
2019-05-22T22:47:37.785Z,1.90
2019-05-22T22:50:10.259Z,1.97
2019-05-22T22:52:41.051Z,1.90
2019-05-22T22:55:14.359Z,2.10
2019-05-22T22:57:46.433Z,2.50
2019-05-22T23:00:20.011Z,1.83
2019-05-22T23:02:51.555Z,2.10
2019-05-22T23:05:22.288Z,1.80
2019-05-22T23:07:53.581Z,1.77
2019-05-22T23:10:24.303Z,1.90
2019-05-22T23:12:55.856Z,1.93
2019-05-22T23:15:27.823Z,1.93
2019-05-22T23:17:58.019Z,2.00
2019-05-22T23:20:29.385Z,2.00
2019-05-22T23:22:57.970Z,1.60
2019-05-22T23:25:29.443Z,2.00
2019-05-22T23:28:11.204Z,2.03
2019-05-22T23:30:41.686Z,2.20
2019-05-22T23:33:11.869Z,1.60
2019-05-22T23:35:41.390Z,2.10
2019-05-22T23:38:13.268Z,1.90
2019-05-22T23:40:45.710Z,2.00
2019-05-22T23:43:28.145Z,1.80
2019-05-22T23:45:58.420Z,1.73
2019-05-22T23:48:30.242Z,1.93
2019-05-22T23:51:00.888Z,1.70
2019-05-22T23:53:31.419Z,1.80
2019-05-22T23:56:04.127Z,1.70
2019-05-22T23:58:49.820Z,1.80
